EGNC/CAX METAR and TAF weather

Enter ICAO airport designator
Station Type Date Time Source
EGNC METAR 2018/06/04 12:50 UTC NOAA

EGNC 041250Z 08008KT 9999 FEW012 BKN020 16/14 Q1019


Station Type Date Time Source
EGNC Decoded METAR 2018/06/04 12:50 UTC NOAA

Carlisle, United Kingdom (EGNC) 54-56N 002-57W
Jun 04, 2018 - 08:50 AM EDT / 2018.06.04 1250 UTC
Wind: from the E (080 degrees) at 9 MPH (8 KT):0
Visibility: greater than 7 mile(s):0
Sky conditions: mostly cloudy
Temperature: 60 F (16 C)
Dew Point: 57 F (14 C)
Relative Humidity: 87%
Pressure (altimeter): 30.09 in. Hg (1019 hPa)
ob: EGNC 041250Z 08008KT 9999 FEW012 BKN020 16/14 Q1019
cycle: 13

Station Type Date Time Source
EGNC TAF UTC NOAA

Error!


Example: see airport list